sensor_id;sensor_type;location;lat;lon;timestamp;temperature;humidity
12922;DHT22;6528;48.086;16.282;2022-08-19T17:46:17;25.40;1.00
12922;DHT22;6528;48.086;16.282;2022-08-19T17:48:50;25.30;99.90
12922;DHT22;6528;48.086;16.282;2022-08-19T17:51:37;25.30;99.90
12922;DHT22;6528;48.086;16.282;2022-08-19T17:54:14;25.30;1.00
12922;DHT22;6528;48.086;16.282;2022-08-19T17:56:42;25.30;1.00
12922;DHT22;6528;48.086;16.282;2022-08-19T17:59:09;25.20;1.00
12922;DHT22;6528;48.086;16.282;2022-08-19T18:01:43;25.10;99.90
12922;DHT22;6528;48.086;16.282;2022-08-19T18:04:21;25.10;99.90
12922;DHT22;6528;48.086;16.282;2022-08-19T18:06:49;25.10;99.90
12922;DHT22;6528;48.086;16.282;2022-08-19T18:09:29;25.10;99.90
12922;DHT22;6528;48.086;16.282;2022-08-19T18:12:12;25.10;1.00
12922;DHT22;6528;48.086;16.282;2022-08-19T18:14:40;25.10;1.00
12922;DHT22;6528;48.086;16.282;2022-08-19T18:17:10;25.10;99.90
12922;DHT22;6528;48.086;16.282;2022-08-19T18:19:40;25.10;1.00
12922;DHT22;6528;48.086;16.282;2022-08-19T18:22:25;25.10;1.00
12922;DHT22;6528;48.086;16.282;2022-08-19T18:24:52;25.10;1.00
12922;DHT22;6528;48.086;16.282;2022-08-19T18:27:20;25.10;1.00
12922;DHT22;6528;48.086;16.282;2022-08-19T18:29:47;25.00;1.00
12922;DHT22;6528;48.086;16.282;2022-08-19T18:32:16;25.00;1.00
12922;DHT22;6528;48.086;16.282;2022-08-19T18:34:49;25.00;99.90
12922;DHT22;6528;48.086;16.282;2022-08-19T18:37:16;25.00;99.90
12922;DHT22;6528;48.086;16.282;2022-08-19T18:39:43;25.00;99.90
12922;DHT22;6528;48.086;16.282;2022-08-19T18:42:29;25.00;99.90
12922;DHT22;6528;48.086;16.282;2022-08-19T18:45:14;25.00;99.90
12922;DHT22;6528;48.086;16.282;2022-08-19T18:47:59;24.90;1.00
12922;DHT22;6528;48.086;16.282;2022-08-19T18:50:58;24.90;1.00
12922;DHT22;6528;48.086;16.282;2022-08-19T18:53:27;24.90;99.90
12922;DHT22;6528;48.086;16.282;2022-08-19T18:55:55;24.90;99.90
12922;DHT22;6528;48.086;16.282;2022-08-19T18:58:23;24.90;99.90
12922;DHT22;6528;48.086;16.282;2022-08-19T19:00:52;24.80;99.90
12922;DHT22;6528;48.086;16.282;2022-08-19T19:03:23;24.80;1.00
12922;DHT22;6528;48.086;16.282;2022-08-19T19:05:49;24.80;1.00
12922;DHT22;6528;48.086;16.282;2022-08-19T19:08:18;24.80;99.90
12922;DHT22;6528;48.086;16.282;2022-08-19T19:10:45;24.70;1.00
12922;DHT22;6528;48.086;16.282;2022-08-19T19:13:16;24.60;1.00
12922;DHT22;6528;48.086;16.282;2022-08-19T19:15:43;24.50;1.00
12922;DHT22;6528;48.086;16.282;2022-08-19T19:18:10;24.30;1.00
12922;DHT22;6528;48.086;16.282;2022-08-19T19:20:39;24.20;99.90
12922;DHT22;6528;48.086;16.282;2022-08-19T19:23:07;24.10;99.90
12922;DHT22;6528;48.086;16.282;2022-08-19T19:25:34;24.00;99.90
12922;DHT22;6528;48.086;16.282;2022-08-19T19:28:22;23.90;99.90
12922;DHT22;6528;48.086;16.282;2022-08-19T19:30:55;23.90;99.90
12922;DHT22;6528;48.086;16.282;2022-08-19T19:33:25;23.80;43.40
12922;DHT22;6528;48.086;16.282;2022-08-19T19:35:52;23.70;1.00
12922;DHT22;6528;48.086;16.282;2022-08-19T19:38:19;23.70;99.90
12922;DHT22;6528;48.086;16.282;2022-08-19T19:40:45;23.70;1.00
12922;DHT22;6528;48.086;16.282;2022-08-19T19:43:13;23.70;1.00
12922;DHT22;6528;48.086;16.282;2022-08-19T19:45:43;23.70;1.00
12922;DHT22;6528;48.086;16.282;2022-08-19T19:48:10;23.70;1.00
12922;DHT22;6528;48.086;16.282;2022-08-19T19:50:39;23.80;1.00
12922;DHT22;6528;48.086;16.282;2022-08-19T19:53:05;23.80;1.00
12922;DHT22;6528;48.086;16.282;2022-08-19T19:55:32;23.70;1.00
12922;DHT22;6528;48.086;16.282;2022-08-19T19:57:59;23.50;1.00
12922;DHT22;6528;48.086;16.282;2022-08-19T20:00:26;23.30;1.00
12922;DHT22;6528;48.086;16.282;2022-08-19T20:02:53;23.10;99.90
12922;DHT22;6528;48.086;16.282;2022-08-19T20:05:22;22.80;99.90
12922;DHT22;6528;48.086;16.282;2022-08-19T20:07:50;22.50;1.00
12922;DHT22;6528;48.086;16.282;2022-08-19T20:10:36;22.50;1.00
12922;DHT22;6528;48.086;16.282;2022-08-19T20:13:04;22.40;99.90
12922;DHT22;6528;48.086;16.282;2022-08-19T20:15:31;22.30;1.00
12922;DHT22;6528;48.086;16.282;2022-08-19T20:17:58;22.20;1.00
12922;DHT22;6528;48.086;16.282;2022-08-19T20:20:26;22.10;99.90
12922;DHT22;6528;48.086;16.282;2022-08-19T20:22:53;22.10;99.90
12922;DHT22;6528;48.086;16.282;2022-08-19T20:25:20;22.10;99.90
12922;DHT22;6528;48.086;16.282;2022-08-19T20:27:48;22.10;99.90
12922;DHT22;6528;48.086;16.282;2022-08-19T20:30:17;22.00;99.90
12922;DHT22;6528;48.086;16.282;2022-08-19T20:32:46;22.10;99.90
12922;DHT22;6528;48.086;16.282;2022-08-19T20:35:15;22.00;99.90
12922;DHT22;6528;48.086;16.282;2022-08-19T20:37:42;22.00;99.90
12922;DHT22;6528;48.086;16.282;2022-08-19T20:40:09;22.00;99.90
12922;DHT22;6528;48.086;16.282;2022-08-19T20:42:39;22.10;99.90
12922;DHT22;6528;48.086;16.282;2022-08-19T20:45:09;22.10;99.90
12922;DHT22;6528;48.086;16.282;2022-08-19T20:47:56;22.20;99.90
12922;DHT22;6528;48.086;16.282;2022-08-19T20:50:23;22.20;99.90
12922;DHT22;6528;48.086;16.282;2022-08-19T20:52:55;22.10;99.90
12922;DHT22;6528;48.086;16.282;2022-08-19T20:55:22;22.10;99.90
12922;DHT22;6528;48.086;16.282;2022-08-19T20:57:49;22.10;99.90
12922;DHT22;6528;48.086;16.282;2022-08-19T21:00:17;22.10;99.90
12922;DHT22;6528;48.086;16.282;2022-08-19T21:02:44;22.10;99.90
12922;DHT22;6528;48.086;16.282;2022-08-19T21:05:12;22.10;99.90
12922;DHT22;6528;48.086;16.282;2022-08-19T21:07:39;22.10;99.90
12922;DHT22;6528;48.086;16.282;2022-08-19T21:10:06;22.10;99.90
12922;DHT22;6528;48.086;16.282;2022-08-19T21:12:33;22.10;99.90
12922;DHT22;6528;48.086;16.282;2022-08-19T21:15:01;22.00;99.90
12922;DHT22;6528;48.086;16.282;2022-08-19T21:17:27;22.00;99.90
12922;DHT22;6528;48.086;16.282;2022-08-19T21:19:54;22.00;99.90
12922;DHT22;6528;48.086;16.282;2022-08-19T21:22:21;21.90;99.90
12922;DHT22;6528;48.086;16.282;2022-08-19T21:24:48;21.90;99.90
12922;DHT22;6528;48.086;16.282;2022-08-19T21:27:14;21.80;99.90
12922;DHT22;6528;48.086;16.282;2022-08-19T21:29:41;21.90;99.90
12922;DHT22;6528;48.086;16.282;2022-08-19T21:32:08;21.80;99.90
12922;DHT22;6528;48.086;16.282;2022-08-19T21:34:40;21.80;99.90
12922;DHT22;6528;48.086;16.282;2022-08-19T21:37:12;21.80;99.90
12922;DHT22;6528;48.086;16.282;2022-08-19T21:39:52;21.80;99.90
12922;DHT22;6528;48.086;16.282;2022-08-19T21:42:20;21.80;99.90
12922;DHT22;6528;48.086;16.282;2022-08-19T21:44:47;21.80;99.90
12922;DHT22;6528;48.086;16.282;2022-08-19T21:47:14;21.80;99.90
12922;DHT22;6528;48.086;16.282;2022-08-19T21:49:41;21.70;99.90
12922;DHT22;6528;48.086;16.282;2022-08-19T21:52:08;21.70;99.90
12922;DHT22;6528;48.086;16.282;2022-08-19T21:54:35;21.70;99.90
12922;DHT22;6528;48.086;16.282;2022-08-19T21:57:04;21.60;99.90
12922;DHT22;6528;48.086;16.282;2022-08-19T21:59:37;21.60;99.90
12922;DHT22;6528;48.086;16.282;2022-08-19T22:02:10;21.60;99.90
12922;DHT22;6528;48.086;16.282;2022-08-19T22:04:47;21.50;99.90
12922;DHT22;6528;48.086;16.282;2022-08-19T22:07:14;21.40;99.90
12922;DHT22;6528;48.086;16.282;2022-08-19T22:09:43;21.40;99.90
12922;DHT22;6528;48.086;16.282;2022-08-19T22:12:22;21.30;99.90
12922;DHT22;6528;48.086;16.282;2022-08-19T22:14:50;21.30;99.90
12922;DHT22;6528;48.086;16.282;2022-08-19T22:17:18;21.20;99.90
12922;DHT22;6528;48.086;16.282;2022-08-19T22:19:45;21.20;99.90
12922;DHT22;6528;48.086;16.282;2022-08-19T22:22:24;21.10;99.90
12922;DHT22;6528;48.086;16.282;2022-08-19T22:24:52;21.10;99.90
12922;DHT22;6528;48.086;16.282;2022-08-19T22:27:20;21.10;99.90
12922;DHT22;6528;48.086;16.282;2022-08-19T22:29:46;21.10;99.90
12922;DHT22;6528;48.086;16.282;2022-08-19T22:32:18;21.10;99.90
12922;DHT22;6528;48.086;16.282;2022-08-19T22:34:55;21.20;99.90
12922;DHT22;6528;48.086;16.282;2022-08-19T22:37:22;21.20;99.90
12922;DHT22;6528;48.086;16.282;2022-08-19T22:39:49;21.20;99.90
12922;DHT22;6528;48.086;16.282;2022-08-19T22:42:20;21.10;99.90
12922;DHT22;6528;48.086;16.282;2022-08-19T22:44:47;21.20;99.90
12922;DHT22;6528;48.086;16.282;2022-08-19T22:47:14;21.20;99.90
12922;DHT22;6528;48.086;16.282;2022-08-19T22:49:42;21.20;99.90
12922;DHT22;6528;48.086;16.282;2022-08-19T22:52:09;21.20;99.90
12922;DHT22;6528;48.086;16.282;2022-08-19T22:54:47;21.20;99.90
12922;DHT22;6528;48.086;16.282;2022-08-19T22:57:15;21.20;99.90
12922;DHT22;6528;48.086;16.282;2022-08-19T22:59:42;21.20;99.90
12922;DHT22;6528;48.086;16.282;2022-08-19T23:02:08;21.20;99.90
12922;DHT22;6528;48.086;16.282;2022-08-19T23:04:35;21.30;99.90
12922;DHT22;6528;48.086;16.282;2022-08-19T23:07:04;21.30;99.90
12922;DHT22;6528;48.086;16.282;2022-08-19T23:09:30;21.30;99.90
12922;DHT22;6528;48.086;16.282;2022-08-19T23:11:58;21.30;99.90
12922;DHT22;6528;48.086;16.282;2022-08-19T23:14:26;21.30;99.90
12922;DHT22;6528;48.086;16.282;2022-08-19T23:16:53;21.40;99.90
12922;DHT22;6528;48.086;16.282;2022-08-19T23:19:24;21.40;99.90
12922;DHT22;6528;48.086;16.282;2022-08-19T23:21:51;21.40;97.70
12922;DHT22;6528;48.086;16.282;2022-08-19T23:24:18;21.50;96.30
12922;DHT22;6528;48.086;16.282;2022-08-19T23:26:45;21.50;97.00
12922;DHT22;6528;48.086;16.282;2022-08-19T23:29:30;21.50;98.40
12922;DHT22;6528;48.086;16.282;2022-08-19T23:32:18;21.50;98.70
12922;DHT22;6528;48.086;16.282;2022-08-19T23:34:45;21.60;95.80
12922;DHT22;6528;48.086;16.282;2022-08-19T23:37:12;21.50;96.50
12922;DHT22;6528;48.086;16.282;2022-08-19T23:39:39;21.50;94.30
12922;DHT22;6528;48.086;16.282;2022-08-19T23:42:10;21.50;91.90
12922;DHT22;6528;48.086;16.282;2022-08-19T23:44:38;21.50;91.00
12922;DHT22;6528;48.086;16.282;2022-08-19T23:47:18;21.50;54.60
12922;DHT22;6528;48.086;16.282;2022-08-19T23:49:45;21.50;59.90
12922;DHT22;6528;48.086;16.282;2022-08-19T23:52:12;21.50;70.70
12922;DHT22;6528;48.086;16.282;2022-08-19T23:54:39;21.50;64.30
12922;DHT22;6528;48.086;16.282;2022-08-19T23:57:10;21.50;38.60
12922;DHT22;6528;48.086;16.282;2022-08-19T23:59:40;21.50;1.00
